sensor_id;sensor_type;location;lat;lon;timestamp;temperature;humidity
52245;DHT22;55759;51.586;-1.758;2023-11-18T00:00:45;8.40;92.90
52245;DHT22;55759;51.586;-1.758;2023-11-18T00:03:11;8.40;92.90
52245;DHT22;55759;51.586;-1.758;2023-11-18T00:05:37;8.50;93.00
52245;DHT22;55759;51.586;-1.758;2023-11-18T00:08:02;8.50;92.90
52245;DHT22;55759;51.586;-1.758;2023-11-18T00:10:28;8.50;92.90
52245;DHT22;55759;51.586;-1.758;2023-11-18T00:12:54;8.50;92.90
52245;DHT22;55759;51.586;-1.758;2023-11-18T00:15:20;8.60;92.90
52245;DHT22;55759;51.586;-1.758;2023-11-18T00:17:45;8.60;92.90
52245;DHT22;55759;51.586;-1.758;2023-11-18T00:20:11;8.60;92.90
52245;DHT22;55759;51.586;-1.758;2023-11-18T00:22:39;8.60;92.90
52245;DHT22;55759;51.586;-1.758;2023-11-18T00:25:05;8.70;92.90
52245;DHT22;55759;51.586;-1.758;2023-11-18T00:27:32;8.70;92.90
52245;DHT22;55759;51.586;-1.758;2023-11-18T00:29:57;8.70;92.80
52245;DHT22;55759;51.586;-1.758;2023-11-18T00:32:23;8.70;92.80
52245;DHT22;55759;51.586;-1.758;2023-11-18T00:34:48;8.80;92.80
52245;DHT22;55759;51.586;-1.758;2023-11-18T00:37:14;8.70;92.70
52245;DHT22;55759;51.586;-1.758;2023-11-18T00:39:40;8.70;92.70
52245;DHT22;55759;51.586;-1.758;2023-11-18T00:42:06;8.70;92.70
52245;DHT22;55759;51.586;-1.758;2023-11-18T00:44:32;8.70;92.70
52245;DHT22;55759;51.586;-1.758;2023-11-18T00:46:57;8.70;92.80
52245;DHT22;55759;51.586;-1.758;2023-11-18T00:49:23;8.80;92.90
52245;DHT22;55759;51.586;-1.758;2023-11-18T00:51:51;8.80;92.90
52245;DHT22;55759;51.586;-1.758;2023-11-18T00:54:16;8.80;92.90
52245;DHT22;55759;51.586;-1.758;2023-11-18T00:56:42;8.90;93.00
52245;DHT22;55759;51.586;-1.758;2023-11-18T00:59:07;8.90;93.10
52245;DHT22;55759;51.586;-1.758;2023-11-18T01:01:33;8.90;93.20
52245;DHT22;55759;51.586;-1.758;2023-11-18T01:03:58;9.00;93.20
52245;DHT22;55759;51.586;-1.758;2023-11-18T01:06:25;8.90;93.30
52245;DHT22;55759;51.586;-1.758;2023-11-18T01:08:51;9.00;93.30
52245;DHT22;55759;51.586;-1.758;2023-11-18T01:11:17;9.00;93.40
52245;DHT22;55759;51.586;-1.758;2023-11-18T01:13:46;9.00;93.40
52245;DHT22;55759;51.586;-1.758;2023-11-18T01:16:11;9.10;93.50
52245;DHT22;55759;51.586;-1.758;2023-11-18T01:18:39;9.10;93.50
52245;DHT22;55759;51.586;-1.758;2023-11-18T01:21:04;9.10;93.50
52245;DHT22;55759;51.586;-1.758;2023-11-18T01:23:30;9.10;93.50
52245;DHT22;55759;51.586;-1.758;2023-11-18T01:25:56;9.20;93.60
52245;DHT22;55759;51.586;-1.758;2023-11-18T01:28:22;9.20;93.60
52245;DHT22;55759;51.586;-1.758;2023-11-18T01:30:51;9.20;93.60
52245;DHT22;55759;51.586;-1.758;2023-11-18T01:33:17;9.20;93.60
52245;DHT22;55759;51.586;-1.758;2023-11-18T01:35:43;9.30;93.70
52245;DHT22;55759;51.586;-1.758;2023-11-18T01:38:09;9.30;93.70
52245;DHT22;55759;51.586;-1.758;2023-11-18T01:40:34;9.30;93.70
52245;DHT22;55759;51.586;-1.758;2023-11-18T01:43:00;9.40;93.70
52245;DHT22;55759;51.586;-1.758;2023-11-18T01:45:26;9.40;93.70
52245;DHT22;55759;51.586;-1.758;2023-11-18T01:47:52;9.40;93.80
52245;DHT22;55759;51.586;-1.758;2023-11-18T01:50:18;9.40;93.80
52245;DHT22;55759;51.586;-1.758;2023-11-18T01:52:44;9.40;93.70
52245;DHT22;55759;51.586;-1.758;2023-11-18T01:55:10;9.50;93.80
52245;DHT22;55759;51.586;-1.758;2023-11-18T01:57:35;9.50;93.80
52245;DHT22;55759;51.586;-1.758;2023-11-18T02:00:02;9.50;93.80
52245;DHT22;55759;51.586;-1.758;2023-11-18T02:02:32;9.50;93.80
52245;DHT22;55759;51.586;-1.758;2023-11-18T02:05:01;9.60;93.80
52245;DHT22;55759;51.586;-1.758;2023-11-18T02:07:29;9.60;93.80
52245;DHT22;55759;51.586;-1.758;2023-11-18T02:09:55;9.70;93.80
52245;DHT22;55759;51.586;-1.758;2023-11-18T02:12:29;9.70;93.80
52245;DHT22;55759;51.586;-1.758;2023-11-18T02:15:00;9.70;93.80
52245;DHT22;55759;51.586;-1.758;2023-11-18T02:17:26;9.80;93.80
52245;DHT22;55759;51.586;-1.758;2023-11-18T02:19:52;9.80;93.80
52245;DHT22;55759;51.586;-1.758;2023-11-18T02:22:18;9.80;93.80
52245;DHT22;55759;51.586;-1.758;2023-11-18T02:24:44;9.80;93.80
52245;DHT22;55759;51.586;-1.758;2023-11-18T02:27:09;9.90;93.80
52245;DHT22;55759;51.586;-1.758;2023-11-18T02:29:42;9.80;93.80
52245;DHT22;55759;51.586;-1.758;2023-11-18T02:32:13;9.90;93.80
52245;DHT22;55759;51.586;-1.758;2023-11-18T02:34:41;9.90;93.80
52245;DHT22;55759;51.586;-1.758;2023-11-18T02:37:08;9.90;93.80
52245;DHT22;55759;51.586;-1.758;2023-11-18T02:39:36;10.00;93.80
52245;DHT22;55759;51.586;-1.758;2023-11-18T02:42:04;10.00;93.80
52245;DHT22;55759;51.586;-1.758;2023-11-18T02:44:34;10.00;93.80
52245;DHT22;55759;51.586;-1.758;2023-11-18T02:47:00;10.10;93.80
52245;DHT22;55759;51.586;-1.758;2023-11-18T02:49:26;10.10;93.80
52245;DHT22;55759;51.586;-1.758;2023-11-18T02:51:53;10.10;93.80
52245;DHT22;55759;51.586;-1.758;2023-11-18T02:54:18;10.10;93.70
52245;DHT22;55759;51.586;-1.758;2023-11-18T02:56:45;10.20;93.70
52245;DHT22;55759;51.586;-1.758;2023-11-18T02:59:10;10.20;93.70
52245;DHT22;55759;51.586;-1.758;2023-11-18T03:01:36;10.20;93.70
52245;DHT22;55759;51.586;-1.758;2023-11-18T03:04:04;10.20;93.70
52245;DHT22;55759;51.586;-1.758;2023-11-18T03:06:30;10.20;93.70
52245;DHT22;55759;51.586;-1.758;2023-11-18T03:08:57;10.20;93.80
52245;DHT22;55759;51.586;-1.758;2023-11-18T03:11:23;10.20;93.80
52245;DHT22;55759;51.586;-1.758;2023-11-18T03:13:49;10.30;93.80
52245;DHT22;55759;51.586;-1.758;2023-11-18T03:16:14;10.30;93.80
52245;DHT22;55759;51.586;-1.758;2023-11-18T03:18:40;10.20;93.80
52245;DHT22;55759;51.586;-1.758;2023-11-18T03:21:10;10.30;93.80
52245;DHT22;55759;51.586;-1.758;2023-11-18T03:23:41;10.30;93.90
52245;DHT22;55759;51.586;-1.758;2023-11-18T03:26:07;10.30;93.80
52245;DHT22;55759;51.586;-1.758;2023-11-18T03:28:33;10.40;93.80
52245;DHT22;55759;51.586;-1.758;2023-11-18T03:30:59;10.40;93.80
52245;DHT22;55759;51.586;-1.758;2023-11-18T03:33:24;10.40;93.80
52245;DHT22;55759;51.586;-1.758;2023-11-18T03:35:50;10.40;93.80
52245;DHT22;55759;51.586;-1.758;2023-11-18T03:38:16;10.40;93.80
52245;DHT22;55759;51.586;-1.758;2023-11-18T03:40:45;10.50;93.80
52245;DHT22;55759;51.586;-1.758;2023-11-18T03:43:11;10.50;93.80
52245;DHT22;55759;51.586;-1.758;2023-11-18T03:45:39;10.50;93.80
52245;DHT22;55759;51.586;-1.758;2023-11-18T03:48:05;10.60;93.80
52245;DHT22;55759;51.586;-1.758;2023-11-18T03:50:32;10.60;93.70
52245;DHT22;55759;51.586;-1.758;2023-11-18T03:52:57;10.60;93.70
52245;DHT22;55759;51.586;-1.758;2023-11-18T03:55:24;10.60;93.70
52245;DHT22;55759;51.586;-1.758;2023-11-18T03:57:50;10.60;93.70
52245;DHT22;55759;51.586;-1.758;2023-11-18T04:00:16;10.60;93.70
52245;DHT22;55759;51.586;-1.758;2023-11-18T04:02:41;10.60;93.70
52245;DHT22;55759;51.586;-1.758;2023-11-18T04:05:07;10.60;93.70
52245;DHT22;55759;51.586;-1.758;2023-11-18T04:07:33;10.60;93.70
52245;DHT22;55759;51.586;-1.758;2023-11-18T04:09:59;10.60;93.70
52245;DHT22;55759;51.586;-1.758;2023-11-18T04:12:25;10.60;93.70
52245;DHT22;55759;51.586;-1.758;2023-11-18T04:14:52;10.60;93.80
52245;DHT22;55759;51.586;-1.758;2023-11-18T04:17:17;10.60;93.80
52245;DHT22;55759;51.586;-1.758;2023-11-18T04:19:43;10.60;93.80
52245;DHT22;55759;51.586;-1.758;2023-11-18T04:22:09;10.70;93.80
52245;DHT22;55759;51.586;-1.758;2023-11-18T04:24:34;10.70;93.80
52245;DHT22;55759;51.586;-1.758;2023-11-18T04:27:00;10.80;93.80
52245;DHT22;55759;51.586;-1.758;2023-11-18T04:29:27;10.80;93.80
52245;DHT22;55759;51.586;-1.758;2023-11-18T04:31:53;10.80;93.70
52245;DHT22;55759;51.586;-1.758;2023-11-18T04:34:18;10.80;93.70
52245;DHT22;55759;51.586;-1.758;2023-11-18T04:36:44;10.80;93.70
52245;DHT22;55759;51.586;-1.758;2023-11-18T04:39:10;10.90;93.60
52245;DHT22;55759;51.586;-1.758;2023-11-18T04:41:41;10.90;93.60
52245;DHT22;55759;51.586;-1.758;2023-11-18T04:44:06;11.00;93.60
52245;DHT22;55759;51.586;-1.758;2023-11-18T04:46:32;11.00;93.50
52245;DHT22;55759;51.586;-1.758;2023-11-18T04:48:57;11.00;93.60
52245;DHT22;55759;51.586;-1.758;2023-11-18T04:51:23;11.00;93.50
52245;DHT22;55759;51.586;-1.758;2023-11-18T04:53:48;11.00;93.50
52245;DHT22;55759;51.586;-1.758;2023-11-18T04:56:14;11.10;93.50
52245;DHT22;55759;51.586;-1.758;2023-11-18T04:58:42;11.10;93.50
52245;DHT22;55759;51.586;-1.758;2023-11-18T05:01:08;11.10;93.40
52245;DHT22;55759;51.586;-1.758;2023-11-18T05:03:34;11.10;93.40
52245;DHT22;55759;51.586;-1.758;2023-11-18T05:06:00;11.10;93.40
52245;DHT22;55759;51.586;-1.758;2023-11-18T05:08:25;11.10;93.40
52245;DHT22;55759;51.586;-1.758;2023-11-18T05:10:51;11.10;93.40
52245;DHT22;55759;51.586;-1.758;2023-11-18T05:13:17;11.20;93.50
52245;DHT22;55759;51.586;-1.758;2023-11-18T05:15:44;11.20;93.50
52245;DHT22;55759;51.586;-1.758;2023-11-18T05:18:14;11.20;93.50
52245;DHT22;55759;51.586;-1.758;2023-11-18T05:20:40;11.20;93.50
52245;DHT22;55759;51.586;-1.758;2023-11-18T05:23:06;11.20;93.60
52245;DHT22;55759;51.586;-1.758;2023-11-18T05:25:32;11.20;93.60
52245;DHT22;55759;51.586;-1.758;2023-11-18T05:27:59;11.30;93.60
52245;DHT22;55759;51.586;-1.758;2023-11-18T05:30:25;11.30;93.60
52245;DHT22;55759;51.586;-1.758;2023-11-18T05:32:51;11.30;93.60
52245;DHT22;55759;51.586;-1.758;2023-11-18T05:35:17;11.30;93.60
52245;DHT22;55759;51.586;-1.758;2023-11-18T05:37:42;11.30;93.70
52245;DHT22;55759;51.586;-1.758;2023-11-18T05:40:09;11.30;93.60
52245;DHT22;55759;51.586;-1.758;2023-11-18T05:42:36;11.40;93.70
52245;DHT22;55759;51.586;-1.758;2023-11-18T05:45:06;11.40;93.70
52245;DHT22;55759;51.586;-1.758;2023-11-18T05:47:33;11.40;93.70
52245;DHT22;55759;51.586;-1.758;2023-11-18T05:49:59;11.40;93.70
52245;DHT22;55759;51.586;-1.758;2023-11-18T05:52:25;11.50;93.70
52245;DHT22;55759;51.586;-1.758;2023-11-18T05:54:50;11.50;93.70
52245;DHT22;55759;51.586;-1.758;2023-11-18T05:57:16;11.50;93.70
52245;DHT22;55759;51.586;-1.758;2023-11-18T05:59:42;11.50;93.70
52245;DHT22;55759;51.586;-1.758;2023-11-18T06:02:08;11.50;93.70
52245;DHT22;55759;51.586;-1.758;2023-11-18T06:04:34;11.50;93.70
52245;DHT22;55759;51.586;-1.758;2023-11-18T06:07:00;11.60;93.80
52245;DHT22;55759;51.586;-1.758;2023-11-18T06:09:27;11.60;93.80
52245;DHT22;55759;51.586;-1.758;2023-11-18T06:11:53;11.60;93.80
52245;DHT22;55759;51.586;-1.758;2023-11-18T06:14:20;11.60;93.80
52245;DHT22;55759;51.586;-1.758;2023-11-18T06:16:49;11.70;93.90
52245;DHT22;55759;51.586;-1.758;2023-11-18T06:19:16;11.70;93.90
52245;DHT22;55759;51.586;-1.758;2023-11-18T06:21:41;11.70;93.90
52245;DHT22;55759;51.586;-1.758;2023-11-18T06:24:07;11.80;93.90
52245;DHT22;55759;51.586;-1.758;2023-11-18T06:26:34;11.80;94.00
52245;DHT22;55759;51.586;-1.758;2023-11-18T06:29:01;11.80;94.00
52245;DHT22;55759;51.586;-1.758;2023-11-18T06:31:27;11.90;94.00
52245;DHT22;55759;51.586;-1.758;2023-11-18T06:33:54;11.90;94.00
52245;DHT22;55759;51.586;-1.758;2023-11-18T06:36:20;12.00;94.10
52245;DHT22;55759;51.586;-1.758;2023-11-18T06:38:46;12.10;94.10
52245;DHT22;55759;51.586;-1.758;2023-11-18T06:41:12;12.10;94.10
52245;DHT22;55759;51.586;-1.758;2023-11-18T06:43:39;12.10;94.10
52245;DHT22;55759;51.586;-1.758;2023-11-18T06:46:20;12.20;94.10
52245;DHT22;55759;51.586;-1.758;2023-11-18T06:48:49;12.20;94.10
52245;DHT22;55759;51.586;-1.758;2023-11-18T06:51:15;12.20;94.00
52245;DHT22;55759;51.586;-1.758;2023-11-18T06:53:41;12.30;94.00
52245;DHT22;55759;51.586;-1.758;2023-11-18T06:56:07;12.30;94.00
52245;DHT22;55759;51.586;-1.758;2023-11-18T06:58:32;12.30;94.00
52245;DHT22;55759;51.586;-1.758;2023-11-18T07:00:59;12.30;94.00
52245;DHT22;55759;51.586;-1.758;2023-11-18T07:03:24;12.40;94.10
52245;DHT22;55759;51.586;-1.758;2023-11-18T07:05:51;12.40;94.00
52245;DHT22;55759;51.586;-1.758;2023-11-18T07:08:16;12.40;94.10
52245;DHT22;55759;51.586;-1.758;2023-11-18T07:10:42;12.50;94.10
52245;DHT22;55759;51.586;-1.758;2023-11-18T07:13:08;12.50;94.10
52245;DHT22;55759;51.586;-1.758;2023-11-18T07:15:34;12.60;94.10
52245;DHT22;55759;51.586;-1.758;2023-11-18T07:18:01;12.60;94.10
52245;DHT22;55759;51.586;-1.758;2023-11-18T07:20:27;12.70;94.10
52245;DHT22;55759;51.586;-1.758;2023-11-18T07:22:52;12.70;94.10
52245;DHT22;55759;51.586;-1.758;2023-11-18T07:25:18;12.80;94.10
52245;DHT22;55759;51.586;-1.758;2023-11-18T07:27:44;12.80;94.10
52245;DHT22;55759;51.586;-1.758;2023-11-18T07:30:10;12.90;94.10
52245;DHT22;55759;51.586;-1.758;2023-11-18T07:32:36;13.00;94.10
52245;DHT22;55759;51.586;-1.758;2023-11-18T07:35:02;13.10;94.10
52245;DHT22;55759;51.586;-1.758;2023-11-18T07:37:27;13.10;94.10
52245;DHT22;55759;51.586;-1.758;2023-11-18T07:40:04;13.10;94.10
52245;DHT22;55759;51.586;-1.758;2023-11-18T07:42:31;13.10;94.10
52245;DHT22;55759;51.586;-1.758;2023-11-18T07:45:00;13.20;94.10
52245;DHT22;55759;51.586;-1.758;2023-11-18T07:47:29;13.20;94.10
52245;DHT22;55759;51.586;-1.758;2023-11-18T07:49:58;13.30;94.10
52245;DHT22;55759;51.586;-1.758;2023-11-18T07:52:25;13.30;94.10
52245;DHT22;55759;51.586;-1.758;2023-11-18T07:54:53;13.30;94.00
52245;DHT22;55759;51.586;-1.758;2023-11-18T07:57:18;13.40;94.00
52245;DHT22;55759;51.586;-1.758;2023-11-18T07:59:44;13.50;94.00
52245;DHT22;55759;51.586;-1.758;2023-11-18T08:02:10;13.40;94.00
52245;DHT22;55759;51.586;-1.758;2023-11-18T08:04:36;13.50;94.00
52245;DHT22;55759;51.586;-1.758;2023-11-18T08:07:02;13.60;93.90
52245;DHT22;55759;51.586;-1.758;2023-11-18T08:09:30;13.60;94.00
52245;DHT22;55759;51.586;-1.758;2023-11-18T08:11:56;13.60;93.90
52245;DHT22;55759;51.586;-1.758;2023-11-18T08:14:22;13.60;93.90
52245;DHT22;55759;51.586;-1.758;2023-11-18T08:16:48;13.60;93.90
52245;DHT22;55759;51.586;-1.758;2023-11-18T08:19:15;13.70;93.90
52245;DHT22;55759;51.586;-1.758;2023-11-18T08:21:40;13.70;93.80
52245;DHT22;55759;51.586;-1.758;2023-11-18T08:24:07;13.70;93.80
52245;DHT22;55759;51.586;-1.758;2023-11-18T08:26:34;13.70;93.80
52245;DHT22;55759;51.586;-1.758;2023-11-18T08:29:00;13.80;93.90
52245;DHT22;55759;51.586;-1.758;2023-11-18T08:31:26;13.80;93.90
52245;DHT22;55759;51.586;-1.758;2023-11-18T08:33:51;13.80;93.80
52245;DHT22;55759;51.586;-1.758;2023-11-18T08:36:20;13.90;93.90
52245;DHT22;55759;51.586;-1.758;2023-11-18T08:38:45;13.90;93.80
52245;DHT22;55759;51.586;-1.758;2023-11-18T08:41:12;13.90;93.80
52245;DHT22;55759;51.586;-1.758;2023-11-18T08:43:38;14.00;93.80
52245;DHT22;55759;51.586;-1.758;2023-11-18T08:46:06;14.00;93.90
52245;DHT22;55759;51.586;-1.758;2023-11-18T08:48:32;14.00;93.80
52245;DHT22;55759;51.586;-1.758;2023-11-18T08:50:59;14.10;93.90
52245;DHT22;55759;51.586;-1.758;2023-11-18T08:53:27;14.10;93.80
52245;DHT22;55759;51.586;-1.758;2023-11-18T08:55:53;14.10;93.80
52245;DHT22;55759;51.586;-1.758;2023-11-18T08:58:21;14.10;93.80
52245;DHT22;55759;51.586;-1.758;2023-11-18T09:00:57;14.10;93.70
52245;DHT22;55759;51.586;-1.758;2023-11-18T09:03:38;14.20;93.70
52245;DHT22;55759;51.586;-1.758;2023-11-18T09:06:08;14.20;93.70
52245;DHT22;55759;51.586;-1.758;2023-11-18T09:08:44;14.20;93.70
52245;DHT22;55759;51.586;-1.758;2023-11-18T09:11:11;14.20;93.70
52245;DHT22;55759;51.586;-1.758;2023-11-18T09:13:41;14.20;93.70
52245;DHT22;55759;51.586;-1.758;2023-11-18T09:16:07;14.30;93.60
52245;DHT22;55759;51.586;-1.758;2023-11-18T09:18:36;14.30;93.60
52245;DHT22;55759;51.586;-1.758;2023-11-18T09:21:02;14.30;93.60
52245;DHT22;55759;51.586;-1.758;2023-11-18T09:23:29;14.40;93.60
52245;DHT22;55759;51.586;-1.758;2023-11-18T09:25:54;14.40;93.60
52245;DHT22;55759;51.586;-1.758;2023-11-18T09:28:21;14.40;93.50
52245;DHT22;55759;51.586;-1.758;2023-11-18T09:30:50;14.40;93.50
52245;DHT22;55759;51.586;-1.758;2023-11-18T09:33:19;14.50;93.50
52245;DHT22;55759;51.586;-1.758;2023-11-18T09:35:52;14.50;93.50
52245;DHT22;55759;51.586;-1.758;2023-11-18T09:38:17;14.50;93.40
52245;DHT22;55759;51.586;-1.758;2023-11-18T09:40:43;14.60;93.40
52245;DHT22;55759;51.586;-1.758;2023-11-18T09:43:11;14.60;93.40
52245;DHT22;55759;51.586;-1.758;2023-11-18T09:45:39;14.60;93.30
52245;DHT22;55759;51.586;-1.758;2023-11-18T09:48:05;14.60;93.40
52245;DHT22;55759;51.586;-1.758;2023-11-18T09:50:32;14.70;93.30
52245;DHT22;55759;51.586;-1.758;2023-11-18T09:52:58;14.70;93.30
52245;DHT22;55759;51.586;-1.758;2023-11-18T09:55:37;14.70;93.20
52245;DHT22;55759;51.586;-1.758;2023-11-18T09:58:06;14.80;93.20
52245;DHT22;55759;51.586;-1.758;2023-11-18T10:00:38;14.80;93.00
52245;DHT22;55759;51.586;-1.758;2023-11-18T10:03:07;14.80;92.90
52245;DHT22;55759;51.586;-1.758;2023-11-18T10:05:41;14.80;92.90
52245;DHT22;55759;51.586;-1.758;2023-11-18T10:08:07;14.80;92.80
52245;DHT22;55759;51.586;-1.758;2023-11-18T10:10:33;14.80;92.90
52245;DHT22;55759;51.586;-1.758;2023-11-18T10:13:02;14.90;92.90
52245;DHT22;55759;51.586;-1.758;2023-11-18T10:15:30;14.80;92.90
52245;DHT22;55759;51.586;-1.758;2023-11-18T10:17:56;14.90;92.90
52245;DHT22;55759;51.586;-1.758;2023-11-18T10:20:58;14.90;92.90
52245;DHT22;55759;51.586;-1.758;2023-11-18T10:23:17;14.90;92.90
52245;DHT22;55759;51.586;-1.758;2023-11-18T10:30:53;15.00;92.80
52245;DHT22;55759;51.586;-1.758;2023-11-18T10:33:18;15.10;92.60
52245;DHT22;55759;51.586;-1.758;2023-11-18T10:35:50;15.10;92.40
52245;DHT22;55759;51.586;-1.758;2023-11-18T10:38:17;15.10;92.40
52245;DHT22;55759;51.586;-1.758;2023-11-18T10:40:42;15.10;92.20
52245;DHT22;55759;51.586;-1.758;2023-11-18T10:43:12;15.10;92.00
52245;DHT22;55759;51.586;-1.758;2023-11-18T10:45:37;15.20;91.90
52245;DHT22;55759;51.586;-1.758;2023-11-18T10:48:06;15.30;91.90
52245;DHT22;55759;51.586;-1.758;2023-11-18T10:50:32;15.30;91.40
52245;DHT22;55759;51.586;-1.758;2023-11-18T10:53:01;15.40;91.40
52245;DHT22;55759;51.586;-1.758;2023-11-18T10:55:38;15.40;91.40
52245;DHT22;55759;51.586;-1.758;2023-11-18T10:58:05;15.40;91.30
52245;DHT22;55759;51.586;-1.758;2023-11-18T11:00:51;15.40;91.10
52245;DHT22;55759;51.586;-1.758;2023-11-18T11:03:21;15.50;90.80
52245;DHT22;55759;51.586;-1.758;2023-11-18T11:05:49;15.50;90.70
52245;DHT22;55759;51.586;-1.758;2023-11-18T11:08:15;15.60;90.60
52245;DHT22;55759;51.586;-1.758;2023-11-18T11:10:42;15.50;90.60
52245;DHT22;55759;51.586;-1.758;2023-11-18T11:13:08;15.60;90.40
52245;DHT22;55759;51.586;-1.758;2023-11-18T11:15:35;15.60;90.40
52245;DHT22;55759;51.586;-1.758;2023-11-18T11:18:04;15.70;90.10
52245;DHT22;55759;51.586;-1.758;2023-11-18T11:20:34;15.60;89.90
52245;DHT22;55759;51.586;-1.758;2023-11-18T11:28:44;15.60;89.10
52245;DHT22;55759;51.586;-1.758;2023-11-18T11:31:15;15.60;89.20
52245;DHT22;55759;51.586;-1.758;2023-11-18T11:33:49;15.60;89.10
52245;DHT22;55759;51.586;-1.758;2023-11-18T11:36:17;15.50;89.20
52245;DHT22;55759;51.586;-1.758;2023-11-18T11:38:49;15.60;88.90
52245;DHT22;55759;51.586;-1.758;2023-11-18T11:41:16;15.60;89.30
52245;DHT22;55759;51.586;-1.758;2023-11-18T11:43:52;15.70;89.60
52245;DHT22;55759;51.586;-1.758;2023-11-18T11:46:26;15.80;89.40
52245;DHT22;55759;51.586;-1.758;2023-11-18T11:49:00;15.90;89.30
52245;DHT22;55759;51.586;-1.758;2023-11-18T11:54:21;16.10;88.20
52245;DHT22;55759;51.586;-1.758;2023-11-18T11:56:49;16.30;87.10
52245;DHT22;55759;51.586;-1.758;2023-11-18T11:59:21;16.40;87.40
52245;DHT22;55759;51.586;-1.758;2023-11-18T12:02:01;16.40;87.40
52245;DHT22;55759;51.586;-1.758;2023-11-18T12:04:32;16.50;86.40
52245;DHT22;55759;51.586;-1.758;2023-11-18T12:06:57;16.50;86.40
52245;DHT22;55759;51.586;-1.758;2023-11-18T12:09:29;16.50;85.90
52245;DHT22;55759;51.586;-1.758;2023-11-18T12:11:58;16.50;86.20
52245;DHT22;55759;51.586;-1.758;2023-11-18T12:14:24;16.50;85.90
52245;DHT22;55759;51.586;-1.758;2023-11-18T12:19:46;16.70;86.40
52245;DHT22;55759;51.586;-1.758;2023-11-18T12:22:13;16.70;85.80
52245;DHT22;55759;51.586;-1.758;2023-11-18T12:27:50;16.60;85.30
52245;DHT22;55759;51.586;-1.758;2023-11-18T12:35:26;16.50;85.00
52245;DHT22;55759;51.586;-1.758;2023-11-18T12:42:58;16.40;84.80
52245;DHT22;55759;51.586;-1.758;2023-11-18T12:48:16;16.40;85.40
52245;DHT22;55759;51.586;-1.758;2023-11-18T12:50:53;16.40;84.80
52245;DHT22;55759;51.586;-1.758;2023-11-18T12:53:20;16.40;85.10
52245;DHT22;55759;51.586;-1.758;2023-11-18T12:55:49;16.40;85.20
52245;DHT22;55759;51.586;-1.758;2023-11-18T12:58:16;16.40;84.50
52245;DHT22;55759;51.586;-1.758;2023-11-18T13:00:43;16.40;84.70
52245;DHT22;55759;51.586;-1.758;2023-11-18T13:03:10;16.40;84.40
52245;DHT22;55759;51.586;-1.758;2023-11-18T13:05:36;16.40;84.10
52245;DHT22;55759;51.586;-1.758;2023-11-18T13:08:02;16.30;84.50
52245;DHT22;55759;51.586;-1.758;2023-11-18T13:10:28;16.30;84.80
52245;DHT22;55759;51.586;-1.758;2023-11-18T13:12:54;16.20;84.70
52245;DHT22;55759;51.586;-1.758;2023-11-18T13:15:20;16.20;84.30
52245;DHT22;55759;51.586;-1.758;2023-11-18T13:17:59;16.10;84.60
52245;DHT22;55759;51.586;-1.758;2023-11-18T13:20:25;16.00;84.60
52245;DHT22;55759;51.586;-1.758;2023-11-18T13:22:51;15.90;84.70
52245;DHT22;55759;51.586;-1.758;2023-11-18T13:25:18;15.90;85.00
52245;DHT22;55759;51.586;-1.758;2023-11-18T13:27:43;15.80;85.20
52245;DHT22;55759;51.586;-1.758;2023-11-18T13:30:09;15.70;85.10
52245;DHT22;55759;51.586;-1.758;2023-11-18T13:32:42;15.70;84.60
52245;DHT22;55759;51.586;-1.758;2023-11-18T13:35:08;15.70;84.70
52245;DHT22;55759;51.586;-1.758;2023-11-18T13:37:33;15.70;84.50
52245;DHT22;55759;51.586;-1.758;2023-11-18T13:39:59;15.80;84.30
52245;DHT22;55759;51.586;-1.758;2023-11-18T13:42:25;15.80;84.50
52245;DHT22;55759;51.586;-1.758;2023-11-18T13:44:53;15.80;84.10
52245;DHT22;55759;51.586;-1.758;2023-11-18T13:47:26;15.80;84.10
52245;DHT22;55759;51.586;-1.758;2023-11-18T13:49:55;15.80;83.90
52245;DHT22;55759;51.586;-1.758;2023-11-18T13:52:23;15.80;83.80
52245;DHT22;55759;51.586;-1.758;2023-11-18T13:54:50;15.80;83.70
52245;DHT22;55759;51.586;-1.758;2023-11-18T13:57:23;15.80;83.90
52245;DHT22;55759;51.586;-1.758;2023-11-18T13:59:52;15.70;83.90
52245;DHT22;55759;51.586;-1.758;2023-11-18T14:02:17;15.70;84.20
52245;DHT22;55759;51.586;-1.758;2023-11-18T14:04:43;15.60;84.30
52245;DHT22;55759;51.586;-1.758;2023-11-18T14:07:09;15.60;84.20
52245;DHT22;55759;51.586;-1.758;2023-11-18T14:09:35;15.60;84.60
52245;DHT22;55759;51.586;-1.758;2023-11-18T14:12:02;15.60;84.80
52245;DHT22;55759;51.586;-1.758;2023-11-18T14:14:28;15.50;84.90
52245;DHT22;55759;51.586;-1.758;2023-11-18T14:16:54;15.50;84.50
52245;DHT22;55759;51.586;-1.758;2023-11-18T14:19:23;15.50;85.10
52245;DHT22;55759;51.586;-1.758;2023-11-18T14:21:50;15.50;85.40
52245;DHT22;55759;51.586;-1.758;2023-11-18T14:24:16;15.50;85.50
52245;DHT22;55759;51.586;-1.758;2023-11-18T14:26:43;15.50;85.60
52245;DHT22;55759;51.586;-1.758;2023-11-18T14:29:09;15.40;85.70
52245;DHT22;55759;51.586;-1.758;2023-11-18T14:31:34;15.50;85.30
52245;DHT22;55759;51.586;-1.758;2023-11-18T14:34:00;15.50;84.90
52245;DHT22;55759;51.586;-1.758;2023-11-18T14:36:26;15.50;85.20
52245;DHT22;55759;51.586;-1.758;2023-11-18T14:38:52;15.50;85.20
52245;DHT22;55759;51.586;-1.758;2023-11-18T14:41:17;15.50;85.40
52245;DHT22;55759;51.586;-1.758;2023-11-18T14:43:51;15.50;85.00
52245;DHT22;55759;51.586;-1.758;2023-11-18T14:46:23;15.50;85.50
52245;DHT22;55759;51.586;-1.758;2023-11-18T14:48:49;15.50;85.50
52245;DHT22;55759;51.586;-1.758;2023-11-18T14:51:15;15.50;85.40
52245;DHT22;55759;51.586;-1.758;2023-11-18T14:53:41;15.50;85.70
52245;DHT22;55759;51.586;-1.758;2023-11-18T14:56:09;15.50;85.60
52245;DHT22;55759;51.586;-1.758;2023-11-18T14:58:35;15.50;85.50
52245;DHT22;55759;51.586;-1.758;2023-11-18T15:01:05;15.40;85.80
52245;DHT22;55759;51.586;-1.758;2023-11-18T15:03:33;15.40;85.90
52245;DHT22;55759;51.586;-1.758;2023-11-18T15:06:00;15.40;85.90
52245;DHT22;55759;51.586;-1.758;2023-11-18T15:08:25;15.30;86.20
52245;DHT22;55759;51.586;-1.758;2023-11-18T15:10:51;15.40;86.00
52245;DHT22;55759;51.586;-1.758;2023-11-18T15:13:17;15.30;85.80
52245;DHT22;55759;51.586;-1.758;2023-11-18T15:15:44;15.30;86.20
52245;DHT22;55759;51.586;-1.758;2023-11-18T15:18:13;15.30;86.20
52245;DHT22;55759;51.586;-1.758;2023-11-18T15:20:43;15.20;86.40
52245;DHT22;55759;51.586;-1.758;2023-11-18T15:23:09;15.20;86.00
52245;DHT22;55759;51.586;-1.758;2023-11-18T15:25:35;15.10;86.20
52245;DHT22;55759;51.586;-1.758;2023-11-18T15:28:00;15.10;86.60
52245;DHT22;55759;51.586;-1.758;2023-11-18T15:30:26;15.00;87.00
52245;DHT22;55759;51.586;-1.758;2023-11-18T15:32:52;14.90;87.50
52245;DHT22;55759;51.586;-1.758;2023-11-18T15:35:18;14.80;87.80
52245;DHT22;55759;51.586;-1.758;2023-11-18T15:37:46;14.70;87.90
52245;DHT22;55759;51.586;-1.758;2023-11-18T15:40:13;14.70;88.00
52245;DHT22;55759;51.586;-1.758;2023-11-18T15:42:39;14.70;88.10
52245;DHT22;55759;51.586;-1.758;2023-11-18T15:45:07;14.70;88.30
52245;DHT22;55759;51.586;-1.758;2023-11-18T15:47:34;14.60;88.20
52245;DHT22;55759;51.586;-1.758;2023-11-18T15:50:01;14.60;88.40